sensor_id;sensor_type;location;lat;lon;timestamp;P1;durP1;ratioP1;P2;durP2;ratioP2
37857;SDS011;23695;55.868;37.472;2024-03-23T00:52:18;46.88;;;28.73;;
37857;SDS011;23695;55.868;37.472;2024-03-23T00:54:44;47.83;;;25.92;;
37857;SDS011;23695;55.868;37.472;2024-03-23T00:57:10;48.00;;;27.85;;
37857;SDS011;23695;55.868;37.472;2024-03-23T00:59:36;45.28;;;26.85;;
37857;SDS011;23695;55.868;37.472;2024-03-23T01:02:01;47.15;;;28.00;;
37857;SDS011;23695;55.868;37.472;2024-03-23T01:04:27;44.28;;;26.83;;
37857;SDS011;23695;55.868;37.472;2024-03-23T01:06:53;49.45;;;27.25;;
37857;SDS011;23695;55.868;37.472;2024-03-23T01:09:18;46.80;;;27.13;;
37857;SDS011;23695;55.868;37.472;2024-03-23T01:11:44;46.63;;;27.63;;
37857;SDS011;23695;55.868;37.472;2024-03-23T01:14:10;50.05;;;28.48;;
37857;SDS011;23695;55.868;37.472;2024-03-23T01:16:36;47.83;;;28.23;;
37857;SDS011;23695;55.868;37.472;2024-03-23T01:19:01;46.72;;;27.20;;
37857;SDS011;23695;55.868;37.472;2024-03-23T01:21:27;49.92;;;28.15;;
37857;SDS011;23695;55.868;37.472;2024-03-23T01:23:52;50.17;;;29.45;;
37857;SDS011;23695;55.868;37.472;2024-03-23T01:26:18;49.63;;;29.13;;
37857;SDS011;23695;55.868;37.472;2024-03-23T01:28:44;46.53;;;28.33;;
37857;SDS011;23695;55.868;37.472;2024-03-23T01:31:10;49.45;;;28.67;;
37857;SDS011;23695;55.868;37.472;2024-03-23T01:33:35;49.63;;;28.50;;
37857;SDS011;23695;55.868;37.472;2024-03-23T01:36:01;53.33;;;29.90;;
37857;SDS011;23695;55.868;37.472;2024-03-23T01:38:27;52.30;;;28.67;;
37857;SDS011;23695;55.868;37.472;2024-03-23T01:40:58;48.60;;;28.98;;
37857;SDS011;23695;55.868;37.472;2024-03-23T01:43:24;60.30;;;31.85;;
37857;SDS011;23695;55.868;37.472;2024-03-23T01:45:50;51.75;;;29.52;;
37857;SDS011;23695;55.868;37.472;2024-03-23T01:48:16;51.50;;;30.17;;
37857;SDS011;23695;55.868;37.472;2024-03-23T01:50:42;52.83;;;31.02;;
37857;SDS011;23695;55.868;37.472;2024-03-23T01:53:08;58.42;;;32.13;;
37857;SDS011;23695;55.868;37.472;2024-03-23T01:55:34;50.45;;;30.88;;
37857;SDS011;23695;55.868;37.472;2024-03-23T01:58:00;54.65;;;30.90;;
37857;SDS011;23695;55.868;37.472;2024-03-23T02:00:25;51.00;;;29.70;;
37857;SDS011;23695;55.868;37.472;2024-03-23T02:02:51;54.50;;;30.08;;
37857;SDS011;23695;55.868;37.472;2024-03-23T02:05:17;51.10;;;29.48;;
37857;SDS011;23695;55.868;37.472;2024-03-23T02:07:43;56.47;;;29.90;;
37857;SDS011;23695;55.868;37.472;2024-03-23T02:10:09;49.28;;;29.90;;
37857;SDS011;23695;55.868;37.472;2024-03-23T02:12:36;58.72;;;31.42;;
37857;SDS011;23695;55.868;37.472;2024-03-23T02:15:02;51.28;;;30.23;;
37857;SDS011;23695;55.868;37.472;2024-03-23T02:17:31;50.42;;;30.42;;
37857;SDS011;23695;55.868;37.472;2024-03-23T02:19:59;51.55;;;31.20;;
37857;SDS011;23695;55.868;37.472;2024-03-23T02:22:33;56.78;;;30.40;;
37857;SDS011;23695;55.868;37.472;2024-03-23T02:25:03;53.88;;;29.98;;
37857;SDS011;23695;55.868;37.472;2024-03-23T02:27:30;54.42;;;30.65;;
37857;SDS011;23695;55.868;37.472;2024-03-23T02:29:55;54.85;;;31.10;;
37857;SDS011;23695;55.868;37.472;2024-03-23T02:32:23;49.80;;;28.73;;
37857;SDS011;23695;55.868;37.472;2024-03-23T02:34:49;53.50;;;30.52;;
37857;SDS011;23695;55.868;37.472;2024-03-23T02:37:15;55.42;;;31.48;;
37857;SDS011;23695;55.868;37.472;2024-03-23T02:39:41;55.38;;;31.13;;
37857;SDS011;23695;55.868;37.472;2024-03-23T02:42:10;55.00;;;31.10;;
37857;SDS011;23695;55.868;37.472;2024-03-23T02:44:35;57.05;;;31.67;;
37857;SDS011;23695;55.868;37.472;2024-03-23T02:47:01;57.33;;;31.67;;
37857;SDS011;23695;55.868;37.472;2024-03-23T02:49:27;54.63;;;31.17;;
37857;SDS011;23695;55.868;37.472;2024-03-23T02:51:53;55.30;;;32.50;;
37857;SDS011;23695;55.868;37.472;2024-03-23T02:54:18;53.45;;;32.13;;
37857;SDS011;23695;55.868;37.472;2024-03-23T02:56:44;55.47;;;30.15;;
37857;SDS011;23695;55.868;37.472;2024-03-23T02:59:10;53.40;;;32.58;;
37857;SDS011;23695;55.868;37.472;2024-03-23T03:01:35;55.60;;;31.00;;
37857;SDS011;23695;55.868;37.472;2024-03-23T03:04:01;57.58;;;31.40;;
37857;SDS011;23695;55.868;37.472;2024-03-23T03:06:27;56.90;;;31.15;;
37857;SDS011;23695;55.868;37.472;2024-03-23T03:08:53;57.25;;;30.65;;
37857;SDS011;23695;55.868;37.472;2024-03-23T03:11:19;54.55;;;28.92;;
37857;SDS011;23695;55.868;37.472;2024-03-23T03:13:44;55.22;;;30.40;;
37857;SDS011;23695;55.868;37.472;2024-03-23T03:16:10;54.13;;;29.50;;
37857;SDS011;23695;55.868;37.472;2024-03-23T03:18:37;49.92;;;28.55;;
37857;SDS011;23695;55.868;37.472;2024-03-23T03:21:03;51.97;;;29.52;;
37857;SDS011;23695;55.868;37.472;2024-03-23T03:23:29;52.67;;;30.20;;
37857;SDS011;23695;55.868;37.472;2024-03-23T03:25:55;58.05;;;30.58;;
37857;SDS011;23695;55.868;37.472;2024-03-23T03:28:20;51.05;;;30.17;;
37857;SDS011;23695;55.868;37.472;2024-03-23T03:30:46;58.33;;;30.15;;
37857;SDS011;23695;55.868;37.472;2024-03-23T03:33:12;52.10;;;30.77;;
37857;SDS011;23695;55.868;37.472;2024-03-23T03:35:38;49.78;;;29.63;;
37857;SDS011;23695;55.868;37.472;2024-03-23T03:38:04;47.95;;;29.50;;
37857;SDS011;23695;55.868;37.472;2024-03-23T03:40:29;49.90;;;28.42;;
37857;SDS011;23695;55.868;37.472;2024-03-23T03:42:55;51.72;;;29.27;;
37857;SDS011;23695;55.868;37.472;2024-03-23T03:45:21;48.17;;;28.63;;
37857;SDS011;23695;55.868;37.472;2024-03-23T03:47:47;50.40;;;29.83;;
37857;SDS011;23695;55.868;37.472;2024-03-23T03:50:12;49.83;;;29.98;;
37857;SDS011;23695;55.868;37.472;2024-03-23T03:52:38;52.60;;;29.75;;
37857;SDS011;23695;55.868;37.472;2024-03-23T03:55:04;52.15;;;29.23;;
37857;SDS011;23695;55.868;37.472;2024-03-23T03:57:38;46.80;;;28.92;;
37857;SDS011;23695;55.868;37.472;2024-03-23T04:00:04;53.33;;;30.10;;
37857;SDS011;23695;55.868;37.472;2024-03-23T04:02:30;50.95;;;29.17;;
37857;SDS011;23695;55.868;37.472;2024-03-23T04:04:56;53.05;;;28.80;;
37857;SDS011;23695;55.868;37.472;2024-03-23T04:07:21;55.03;;;30.08;;
37857;SDS011;23695;55.868;37.472;2024-03-23T04:09:47;51.63;;;28.55;;
37857;SDS011;23695;55.868;37.472;2024-03-23T04:12:14;55.67;;;30.65;;
37857;SDS011;23695;55.868;37.472;2024-03-23T04:14:39;48.65;;;29.33;;
37857;SDS011;23695;55.868;37.472;2024-03-23T04:17:05;58.03;;;30.55;;
37857;SDS011;23695;55.868;37.472;2024-03-23T04:19:31;53.13;;;27.75;;
37857;SDS011;23695;55.868;37.472;2024-03-23T04:21:57;50.92;;;30.50;;
37857;SDS011;23695;55.868;37.472;2024-03-23T04:24:23;52.25;;;29.98;;
37857;SDS011;23695;55.868;37.472;2024-03-23T04:26:49;53.28;;;29.13;;
37857;SDS011;23695;55.868;37.472;2024-03-23T04:29:14;54.10;;;29.60;;
37857;SDS011;23695;55.868;37.472;2024-03-23T04:31:40;49.58;;;28.52;;
37857;SDS011;23695;55.868;37.472;2024-03-23T04:34:06;44.92;;;28.00;;
37857;SDS011;23695;55.868;37.472;2024-03-23T04:36:31;46.95;;;27.45;;
37857;SDS011;23695;55.868;37.472;2024-03-23T04:38:59;48.00;;;27.35;;
37857;SDS011;23695;55.868;37.472;2024-03-23T04:41:25;46.50;;;27.48;;
37857;SDS011;23695;55.868;37.472;2024-03-23T04:43:51;50.17;;;28.55;;
37857;SDS011;23695;55.868;37.472;2024-03-23T04:46:17;47.10;;;26.67;;
37857;SDS011;23695;55.868;37.472;2024-03-23T04:48:43;45.05;;;27.33;;
37857;SDS011;23695;55.868;37.472;2024-03-23T04:51:09;42.63;;;25.70;;
37857;SDS011;23695;55.868;37.472;2024-03-23T04:53:37;45.95;;;25.90;;
37857;SDS011;23695;55.868;37.472;2024-03-23T04:56:03;45.38;;;26.33;;
37857;SDS011;23695;55.868;37.472;2024-03-23T04:58:32;43.35;;;24.17;;
37857;SDS011;23695;55.868;37.472;2024-03-23T05:00:57;43.08;;;23.67;;
37857;SDS011;23695;55.868;37.472;2024-03-23T05:03:23;38.65;;;23.17;;
37857;SDS011;23695;55.868;37.472;2024-03-23T05:05:49;38.40;;;22.70;;
37857;SDS011;23695;55.868;37.472;2024-03-23T05:08:15;36.28;;;23.95;;
37857;SDS011;23695;55.868;37.472;2024-03-23T05:10:42;31.65;;;21.15;;
37857;SDS011;23695;55.868;37.472;2024-03-23T05:13:08;35.25;;;21.52;;
37857;SDS011;23695;55.868;37.472;2024-03-23T05:15:34;35.70;;;21.02;;
37857;SDS011;23695;55.868;37.472;2024-03-23T05:18:00;33.97;;;22.30;;
37857;SDS011;23695;55.868;37.472;2024-03-23T05:20:26;36.10;;;22.20;;
37857;SDS011;23695;55.868;37.472;2024-03-23T05:22:52;33.17;;;20.90;;
37857;SDS011;23695;55.868;37.472;2024-03-23T05:25:19;34.55;;;21.70;;
37857;SDS011;23695;55.868;37.472;2024-03-23T05:27:45;32.28;;;21.67;;
37857;SDS011;23695;55.868;37.472;2024-03-23T05:30:11;35.75;;;22.50;;
37857;SDS011;23695;55.868;37.472;2024-03-23T05:32:37;29.80;;;20.30;;
37857;SDS011;23695;55.868;37.472;2024-03-23T05:35:03;32.25;;;21.50;;
37857;SDS011;23695;55.868;37.472;2024-03-23T05:37:29;32.00;;;21.42;;
37857;SDS011;23695;55.868;37.472;2024-03-23T05:39:54;25.83;;;17.80;;
37857;SDS011;23695;55.868;37.472;2024-03-23T05:42:20;30.13;;;19.75;;
37857;SDS011;23695;55.868;37.472;2024-03-23T05:44:46;28.75;;;19.55;;
37857;SDS011;23695;55.868;37.472;2024-03-23T05:47:12;25.05;;;18.92;;
37857;SDS011;23695;55.868;37.472;2024-03-23T05:49:38;27.38;;;18.77;;
37857;SDS011;23695;55.868;37.472;2024-03-23T05:52:04;25.48;;;16.73;;
37857;SDS011;23695;55.868;37.472;2024-03-23T05:54:30;22.70;;;15.90;;
37857;SDS011;23695;55.868;37.472;2024-03-23T05:56:55;30.88;;;18.73;;
37857;SDS011;23695;55.868;37.472;2024-03-23T05:59:21;27.00;;;18.55;;
37857;SDS011;23695;55.868;37.472;2024-03-23T06:01:50;22.23;;;15.80;;
37857;SDS011;23695;55.868;37.472;2024-03-23T06:04:19;20.38;;;14.05;;
37857;SDS011;23695;55.868;37.472;2024-03-23T06:06:45;20.52;;;14.15;;
37857;SDS011;23695;55.868;37.472;2024-03-23T06:09:11;19.50;;;14.48;;
37857;SDS011;23695;55.868;37.472;2024-03-23T06:11:37;19.98;;;13.93;;
37857;SDS011;23695;55.868;37.472;2024-03-23T06:14:03;18.90;;;12.77;;
37857;SDS011;23695;55.868;37.472;2024-03-23T06:16:29;16.88;;;12.77;;
37857;SDS011;23695;55.868;37.472;2024-03-23T06:18:54;17.63;;;12.52;;
37857;SDS011;23695;55.868;37.472;2024-03-23T06:21:20;18.40;;;12.25;;
37857;SDS011;23695;55.868;37.472;2024-03-23T06:23:46;21.63;;;13.93;;
37857;SDS011;23695;55.868;37.472;2024-03-23T06:26:12;24.10;;;12.50;;
37857;SDS011;23695;55.868;37.472;2024-03-23T06:28:37;19.13;;;12.18;;
37857;SDS011;23695;55.868;37.472;2024-03-23T06:31:03;19.10;;;12.75;;
37857;SDS011;23695;55.868;37.472;2024-03-23T06:33:37;15.73;;;11.77;;
37857;SDS011;23695;55.868;37.472;2024-03-23T06:36:05;16.50;;;11.45;;
37857;SDS011;23695;55.868;37.472;2024-03-23T06:38:34;16.35;;;11.23;;
37857;SDS011;23695;55.868;37.472;2024-03-23T06:41:02;19.50;;;12.00;;
37857;SDS011;23695;55.868;37.472;2024-03-23T06:43:28;21.67;;;13.90;;
37857;SDS011;23695;55.868;37.472;2024-03-23T06:45:54;21.58;;;12.98;;
37857;SDS011;23695;55.868;37.472;2024-03-23T06:48:20;19.17;;;13.10;;
37857;SDS011;23695;55.868;37.472;2024-03-23T06:50:46;19.50;;;14.52;;
37857;SDS011;23695;55.868;37.472;2024-03-23T06:53:12;18.67;;;12.95;;
37857;SDS011;23695;55.868;37.472;2024-03-23T06:55:39;16.08;;;10.98;;
37857;SDS011;23695;55.868;37.472;2024-03-23T06:58:05;13.43;;;11.07;;
37857;SDS011;23695;55.868;37.472;2024-03-23T07:00:31;13.27;;;9.98;;
37857;SDS011;23695;55.868;37.472;2024-03-23T07:02:57;12.13;;;9.60;;
37857;SDS011;23695;55.868;37.472;2024-03-23T07:05:25;12.70;;;9.10;;
37857;SDS011;23695;55.868;37.472;2024-03-23T07:07:51;10.40;;;7.93;;
37857;SDS011;23695;55.868;37.472;2024-03-23T07:10:17;12.00;;;9.27;;
37857;SDS011;23695;55.868;37.472;2024-03-23T07:12:43;13.00;;;9.25;;
37857;SDS011;23695;55.868;37.472;2024-03-23T07:15:09;13.77;;;9.15;;
37857;SDS011;23695;55.868;37.472;2024-03-23T07:17:35;16.05;;;8.48;;
37857;SDS011;23695;55.868;37.472;2024-03-23T07:20:01;16.25;;;9.70;;
37857;SDS011;23695;55.868;37.472;2024-03-23T07:22:28;13.50;;;8.75;;
37857;SDS011;23695;55.868;37.472;2024-03-23T07:24:53;18.73;;;9.25;;
37857;SDS011;23695;55.868;37.472;2024-03-23T07:27:22;13.18;;;9.15;;
37857;SDS011;23695;55.868;37.472;2024-03-23T07:29:47;16.08;;;9.80;;
37857;SDS011;23695;55.868;37.472;2024-03-23T07:32:13;13.07;;;9.05;;
37857;SDS011;23695;55.868;37.472;2024-03-23T07:34:39;15.75;;;9.20;;
37857;SDS011;23695;55.868;37.472;2024-03-23T07:37:05;14.35;;;9.70;;
37857;SDS011;23695;55.868;37.472;2024-03-23T07:39:30;14.82;;;8.75;;
37857;SDS011;23695;55.868;37.472;2024-03-23T07:41:56;14.55;;;9.65;;
37857;SDS011;23695;55.868;37.472;2024-03-23T07:44:24;14.43;;;10.25;;
37857;SDS011;23695;55.868;37.472;2024-03-23T07:46:50;13.50;;;8.85;;
37857;SDS011;23695;55.868;37.472;2024-03-23T07:49:16;10.68;;;8.02;;
37857;SDS011;23695;55.868;37.472;2024-03-23T07:51:41;12.20;;;9.18;;
37857;SDS011;23695;55.868;37.472;2024-03-23T07:54:07;36.58;;;23.77;;
37857;SDS011;23695;55.868;37.472;2024-03-23T07:56:33;11.63;;;9.18;;
37857;SDS011;23695;55.868;37.472;2024-03-23T07:58:59;15.27;;;9.00;;
37857;SDS011;23695;55.868;37.472;2024-03-23T08:01:24;9.23;;;6.85;;
37857;SDS011;23695;55.868;37.472;2024-03-23T08:03:50;9.63;;;6.95;;
37857;SDS011;23695;55.868;37.472;2024-03-23T08:06:19;11.48;;;7.07;;
37857;SDS011;23695;55.868;37.472;2024-03-23T08:08:46;8.15;;;6.50;;
37857;SDS011;23695;55.868;37.472;2024-03-23T08:11:13;7.13;;;6.43;;
37857;SDS011;23695;55.868;37.472;2024-03-23T08:13:39;9.40;;;6.82;;
37857;SDS011;23695;55.868;37.472;2024-03-23T08:16:06;10.90;;;6.65;;
37857;SDS011;23695;55.868;37.472;2024-03-23T08:18:32;12.55;;;8.60;;
37857;SDS011;23695;55.868;37.472;2024-03-23T08:21:02;8.93;;;7.45;;
37857;SDS011;23695;55.868;37.472;2024-03-23T08:23:28;7.93;;;6.30;;
37857;SDS011;23695;55.868;37.472;2024-03-23T08:25:57;8.68;;;5.38;;
37857;SDS011;23695;55.868;37.472;2024-03-23T08:28:24;7.18;;;5.60;;
37857;SDS011;23695;55.868;37.472;2024-03-23T08:30:50;8.25;;;5.93;;
37857;SDS011;23695;55.868;37.472;2024-03-23T08:33:16;7.75;;;5.70;;
37857;SDS011;23695;55.868;37.472;2024-03-23T08:35:41;9.32;;;5.78;;
37857;SDS011;23695;55.868;37.472;2024-03-23T08:38:07;8.90;;;5.10;;
37857;SDS011;23695;55.868;37.472;2024-03-23T08:40:33;7.93;;;5.80;;
37857;SDS011;23695;55.868;37.472;2024-03-23T08:42:59;8.35;;;6.22;;
37857;SDS011;23695;55.868;37.472;2024-03-23T08:45:25;6.95;;;5.07;;
37857;SDS011;23695;55.868;37.472;2024-03-23T08:47:50;7.10;;;5.10;;
37857;SDS011;23695;55.868;37.472;2024-03-23T08:50:16;7.82;;;5.50;;
37857;SDS011;23695;55.868;37.472;2024-03-23T08:52:42;8.90;;;5.60;;
37857;SDS011;23695;55.868;37.472;2024-03-23T08:55:08;8.60;;;5.90;;
37857;SDS011;23695;55.868;37.472;2024-03-23T08:57:34;12.63;;;5.50;;
37857;SDS011;23695;55.868;37.472;2024-03-23T08:59:59;8.35;;;5.63;;
37857;SDS011;23695;55.868;37.472;2024-03-23T09:02:25;6.72;;;5.55;;
37857;SDS011;23695;55.868;37.472;2024-03-23T09:04:51;8.20;;;5.70;;
37857;SDS011;23695;55.868;37.472;2024-03-23T09:07:16;7.13;;;5.45;;
37857;SDS011;23695;55.868;37.472;2024-03-23T09:09:42;8.45;;;5.60;;
37857;SDS011;23695;55.868;37.472;2024-03-23T09:12:08;7.30;;;5.55;;
37857;SDS011;23695;55.868;37.472;2024-03-23T09:14:34;7.25;;;5.63;;
37857;SDS011;23695;55.868;37.472;2024-03-23T09:16:59;7.05;;;6.35;;
37857;SDS011;23695;55.868;37.472;2024-03-23T09:19:28;6.75;;;6.00;;
37857;SDS011;23695;55.868;37.472;2024-03-23T09:21:55;8.27;;;6.97;;
37857;SDS011;23695;55.868;37.472;2024-03-23T09:24:21;6.97;;;5.70;;
37857;SDS011;23695;55.868;37.472;2024-03-23T09:26:47;5.78;;;5.20;;
37857;SDS011;23695;55.868;37.472;2024-03-23T09:29:12;9.38;;;5.82;;
37857;SDS011;23695;55.868;37.472;2024-03-23T09:31:39;10.10;;;5.03;;
37857;SDS011;23695;55.868;37.472;2024-03-23T09:34:05;5.20;;;4.13;;
37857;SDS011;23695;55.868;37.472;2024-03-23T09:36:31;7.78;;;4.80;;
37857;SDS011;23695;55.868;37.472;2024-03-23T09:38:56;6.90;;;4.70;;
37857;SDS011;23695;55.868;37.472;2024-03-23T09:41:22;7.38;;;4.78;;
37857;SDS011;23695;55.868;37.472;2024-03-23T09:43:48;4.97;;;4.25;;
37857;SDS011;23695;55.868;37.472;2024-03-23T09:46:14;5.63;;;4.63;;
37857;SDS011;23695;55.868;37.472;2024-03-23T09:48:40;6.30;;;4.63;;
37857;SDS011;23695;55.868;37.472;2024-03-23T09:51:07;7.90;;;4.70;;
37857;SDS011;23695;55.868;37.472;2024-03-23T09:53:33;6.35;;;4.60;;
37857;SDS011;23695;55.868;37.472;2024-03-23T09:55:59;7.70;;;5.32;;
37857;SDS011;23695;55.868;37.472;2024-03-23T09:58:24;6.93;;;5.70;;
37857;SDS011;23695;55.868;37.472;2024-03-23T10:00:50;5.88;;;4.97;;
37857;SDS011;23695;55.868;37.472;2024-03-23T10:03:16;6.97;;;4.97;;
37857;SDS011;23695;55.868;37.472;2024-03-23T10:05:41;9.23;;;4.90;;
37857;SDS011;23695;55.868;37.472;2024-03-23T10:10:39;8.20;;;5.35;;
37857;SDS011;23695;55.868;37.472;2024-03-23T10:13:10;5.68;;;4.90;;
37857;SDS011;23695;55.868;37.472;2024-03-23T10:15:36;6.88;;;5.03;;
37857;SDS011;23695;55.868;37.472;2024-03-23T10:18:18;7.60;;;4.97;;
37857;SDS011;23695;55.868;37.472;2024-03-23T10:21:07;6.22;;;5.18;;
37857;SDS011;23695;55.868;37.472;2024-03-23T10:23:36;6.47;;;5.00;;
37857;SDS011;23695;55.868;37.472;2024-03-23T10:26:13;6.45;;;5.65;;
37857;SDS011;23695;55.868;37.472;2024-03-23T10:28:56;7.30;;;5.15;;
37857;SDS011;23695;55.868;37.472;2024-03-23T10:31:22;10.43;;;5.50;;
37857;SDS011;23695;55.868;37.472;2024-03-23T10:33:48;8.30;;;5.47;;
37857;SDS011;23695;55.868;37.472;2024-03-23T10:36:15;7.95;;;4.97;;
37857;SDS011;23695;55.868;37.472;2024-03-23T10:38:47;7.60;;;5.35;;
37857;SDS011;23695;55.868;37.472;2024-03-23T10:41:14;8.70;;;5.95;;
37857;SDS011;23695;55.868;37.472;2024-03-23T10:43:41;6.68;;;5.30;;
37857;SDS011;23695;55.868;37.472;2024-03-23T10:46:08;6.43;;;5.13;;
37857;SDS011;23695;55.868;37.472;2024-03-23T10:48:34;8.68;;;5.60;;
37857;SDS011;23695;55.868;37.472;2024-03-23T10:51:00;6.90;;;5.28;;
37857;SDS011;23695;55.868;37.472;2024-03-23T10:53:26;11.00;;;6.72;;
37857;SDS011;23695;55.868;37.472;2024-03-23T10:55:53;10.45;;;6.30;;
37857;SDS011;23695;55.868;37.472;2024-03-23T10:58:21;12.45;;;6.82;;
37857;SDS011;23695;55.868;37.472;2024-03-23T11:00:52;8.45;;;6.20;;
37857;SDS011;23695;55.868;37.472;2024-03-23T11:03:31;8.68;;;6.10;;
37857;SDS011;23695;55.868;37.472;2024-03-23T11:05:58;7.00;;;5.45;;
37857;SDS011;23695;55.868;37.472;2024-03-23T11:08:40;8.07;;;6.03;;
37857;SDS011;23695;55.868;37.472;2024-03-23T11:13:47;7.43;;;5.32;;
37857;SDS011;23695;55.868;37.472;2024-03-23T11:16:23;7.68;;;5.75;;
37857;SDS011;23695;55.868;37.472;2024-03-23T11:18:49;14.13;;;6.28;;
37857;SDS011;23695;55.868;37.472;2024-03-23T11:24:20;15.80;;;7.07;;
37857;SDS011;23695;55.868;37.472;2024-03-23T11:26:47;9.35;;;6.95;;
37857;SDS011;23695;55.868;37.472;2024-03-23T11:29:14;10.43;;;6.30;;
37857;SDS011;23695;55.868;37.472;2024-03-23T11:34:13;10.32;;;6.85;;
37857;SDS011;23695;55.868;37.472;2024-03-23T11:36:41;12.15;;;7.50;;
37857;SDS011;23695;55.868;37.472;2024-03-23T11:39:11;11.27;;;7.55;;
37857;SDS011;23695;55.868;37.472;2024-03-23T11:44:16;11.52;;;7.30;;
37857;SDS011;23695;55.868;37.472;2024-03-23T11:46:42;10.57;;;7.53;;
37857;SDS011;23695;55.868;37.472;2024-03-23T11:51:50;13.20;;;8.02;;
37857;SDS011;23695;55.868;37.472;2024-03-23T11:54:20;18.20;;;9.65;;
37857;SDS011;23695;55.868;37.472;2024-03-23T11:59:38;7.68;;;5.70;;
37857;SDS011;23695;55.868;37.472;2024-03-23T12:02:11;7.55;;;5.90;;
37857;SDS011;23695;55.868;37.472;2024-03-23T12:04:38;6.75;;;5.70;;
37857;SDS011;23695;55.868;37.472;2024-03-23T12:07:14;6.78;;;5.43;;
37857;SDS011;23695;55.868;37.472;2024-03-23T12:09:41;9.18;;;5.43;;
37857;SDS011;23695;55.868;37.472;2024-03-23T12:12:11;11.90;;;5.53;;
37857;SDS011;23695;55.868;37.472;2024-03-23T12:14:42;8.07;;;5.45;;
37857;SDS011;23695;55.868;37.472;2024-03-23T12:17:26;7.82;;;6.40;;
37857;SDS011;23695;55.868;37.472;2024-03-23T12:19:52;10.65;;;6.90;;
37857;SDS011;23695;55.868;37.472;2024-03-23T12:22:20;8.93;;;6.88;;
37857;SDS011;23695;55.868;37.472;2024-03-23T12:24:46;10.48;;;8.68;;
37857;SDS011;23695;55.868;37.472;2024-03-23T12:27:13;12.10;;;9.60;;
37857;SDS011;23695;55.868;37.472;2024-03-23T12:29:38;46.13;;;29.25;;
37857;SDS011;23695;55.868;37.472;2024-03-23T12:32:04;17.30;;;9.07;;
37857;SDS011;23695;55.868;37.472;2024-03-23T12:34:30;17.95;;;10.13;;
37857;SDS011;23695;55.868;37.472;2024-03-23T12:36:56;8.95;;;6.80;;
37857;SDS011;23695;55.868;37.472;2024-03-23T12:39:22;8.48;;;5.38;;
37857;SDS011;23695;55.868;37.472;2024-03-23T12:41:48;9.55;;;5.05;;
37857;SDS011;23695;55.868;37.472;2024-03-23T12:44:14;6.38;;;5.07;;
37857;SDS011;23695;55.868;37.472;2024-03-23T12:46:40;6.93;;;5.78;;
37857;SDS011;23695;55.868;37.472;2024-03-23T12:49:06;13.57;;;5.78;;
37857;SDS011;23695;55.868;37.472;2024-03-23T12:51:32;15.80;;;6.20;;
37857;SDS011;23695;55.868;37.472;2024-03-23T12:53:58;10.88;;;6.00;;
37857;SDS011;23695;55.868;37.472;2024-03-23T12:56:24;10.85;;;5.15;;
37857;SDS011;23695;55.868;37.472;2024-03-23T12:58:50;8.57;;;5.75;;
37857;SDS011;23695;55.868;37.472;2024-03-23T13:01:19;9.65;;;6.53;;
37857;SDS011;23695;55.868;37.472;2024-03-23T13:03:48;9.43;;;6.05;;
37857;SDS011;23695;55.868;37.472;2024-03-23T13:06:15;13.17;;;6.67;;
37857;SDS011;23695;55.868;37.472;2024-03-23T13:08:43;7.35;;;6.10;;
37857;SDS011;23695;55.868;37.472;2024-03-23T13:11:09;8.20;;;5.82;;
37857;SDS011;23695;55.868;37.472;2024-03-23T13:13:38;11.52;;;6.53;;
37857;SDS011;23695;55.868;37.472;2024-03-23T13:16:05;8.57;;;5.45;;
37857;SDS011;23695;55.868;37.472;2024-03-23T13:18:31;7.90;;;5.90;;
37857;SDS011;23695;55.868;37.472;2024-03-23T13:20:58;6.80;;;5.97;;
37857;SDS011;23695;55.868;37.472;2024-03-23T13:23:24;6.82;;;5.97;;
37857;SDS011;23695;55.868;37.472;2024-03-23T13:25:51;7.20;;;5.13;;
37857;SDS011;23695;55.868;37.472;2024-03-23T13:28:20;9.27;;;6.15;;
37857;SDS011;23695;55.868;37.472;2024-03-23T13:30:50;11.98;;;5.70;;
37857;SDS011;23695;55.868;37.472;2024-03-23T13:33:19;8.95;;;6.13;;
37857;SDS011;23695;55.868;37.472;2024-03-23T13:35:52;9.95;;;6.78;;
37857;SDS011;23695;55.868;37.472;2024-03-23T13:38:19;8.10;;;4.95;;
37857;SDS011;23695;55.868;37.472;2024-03-23T13:40:51;6.97;;;5.13;;
37857;SDS011;23695;55.868;37.472;2024-03-23T13:43:18;7.07;;;5.18;;
37857;SDS011;23695;55.868;37.472;2024-03-23T13:45:44;6.47;;;5.05;;
37857;SDS011;23695;55.868;37.472;2024-03-23T13:48:12;7.88;;;5.10;;
37857;SDS011;23695;55.868;37.472;2024-03-23T13:50:38;7.38;;;5.18;;
37857;SDS011;23695;55.868;37.472;2024-03-23T13:53:04;12.05;;;5.38;;
37857;SDS011;23695;55.868;37.472;2024-03-23T13:55:29;7.97;;;5.60;;
37857;SDS011;23695;55.868;37.472;2024-03-23T13:57:55;10.50;;;5.95;;
37857;SDS011;23695;55.868;37.472;2024-03-23T14:00:21;10.45;;;5.95;;
37857;SDS011;23695;55.868;37.472;2024-03-23T14:02:48;15.68;;;9.38;;
37857;SDS011;23695;55.868;37.472;2024-03-23T14:05:14;17.92;;;10.80;;
37857;SDS011;23695;55.868;37.472;2024-03-23T14:07:40;25.25;;;9.63;;
37857;SDS011;23695;55.868;37.472;2024-03-23T14:10:11;11.02;;;8.10;;
37857;SDS011;23695;55.868;37.472;2024-03-23T14:12:37;8.48;;;6.32;;
37857;SDS011;23695;55.868;37.472;2024-03-23T14:15:09;10.45;;;7.10;;
37857;SDS011;23695;55.868;37.472;2024-03-23T14:17:35;12.13;;;7.03;;
37857;SDS011;23695;55.868;37.472;2024-03-23T14:20:00;10.20;;;6.82;;
37857;SDS011;23695;55.868;37.472;2024-03-23T14:22:29;7.82;;;5.90;;
37857;SDS011;23695;55.868;37.472;2024-03-23T14:24:55;9.10;;;6.53;;
37857;SDS011;23695;55.868;37.472;2024-03-23T14:27:23;8.85;;;6.60;;
37857;SDS011;23695;55.868;37.472;2024-03-23T14:29:51;10.55;;;6.82;;
37857;SDS011;23695;55.868;37.472;2024-03-23T14:32:17;7.18;;;5.72;;
37857;SDS011;23695;55.868;37.472;2024-03-23T14:34:42;9.32;;;5.68;;
37857;SDS011;23695;55.868;37.472;2024-03-23T14:37:09;11.38;;;6.30;;
37857;SDS011;23695;55.868;37.472;2024-03-23T14:39:38;8.57;;;6.10;;
37857;SDS011;23695;55.868;37.472;2024-03-23T14:42:04;9.45;;;5.55;;
37857;SDS011;23695;55.868;37.472;2024-03-23T14:44:33;6.63;;;5.20;;
37857;SDS011;23695;55.868;37.472;2024-03-23T14:47:01;6.25;;;4.95;;
37857;SDS011;23695;55.868;37.472;2024-03-23T14:49:27;9.48;;;4.78;;
37857;SDS011;23695;55.868;37.472;2024-03-23T14:51:53;5.60;;;5.03;;
37857;SDS011;23695;55.868;37.472;2024-03-23T14:54:19;9.60;;;5.00;;
37857;SDS011;23695;55.868;37.472;2024-03-23T14:56:44;7.18;;;4.80;;
37857;SDS011;23695;55.868;37.472;2024-03-23T14:59:10;5.25;;;4.25;;
37857;SDS011;23695;55.868;37.472;2024-03-23T15:01:36;6.60;;;4.07;;
37857;SDS011;23695;55.868;37.472;2024-03-23T15:04:02;3.83;;;3.42;;
37857;SDS011;23695;55.868;37.472;2024-03-23T15:06:28;3.67;;;3.30;;
37857;SDS011;23695;55.868;37.472;2024-03-23T15:08:54;6.25;;;3.42;;
37857;SDS011;23695;55.868;37.472;2024-03-23T15:11:19;4.50;;;3.88;;
37857;SDS011;23695;55.868;37.472;2024-03-23T15:13:45;4.97;;;4.32;;
37857;SDS011;23695;55.868;37.472;2024-03-23T15:16:21;5.85;;;4.20;;
37857;SDS011;23695;55.868;37.472;2024-03-23T15:18:46;4.78;;;4.22;;
37857;SDS011;23695;55.868;37.472;2024-03-23T15:21:15;7.82;;;4.35;;
37857;SDS011;23695;55.868;37.472;2024-03-23T15:23:40;5.80;;;4.32;;
37857;SDS011;23695;55.868;37.472;2024-03-23T15:26:06;11.93;;;5.10;;
37857;SDS011;23695;55.868;37.472;2024-03-23T15:28:32;5.55;;;4.90;;